Bookmark and Share
Track history (hours):
 

Mariner Of The Seas

Operator: Royal Caribbean Cruises Ltd

Last reported at 2014-Apr-19 10:06 UTC. Time now 2014-Apr-21 03:13 UTC.
Position N 35°03' E 129°08'.

Type: Passenger vessel. MMSI: 311493000.

NotesDate/timePositionNaut miles runAvg speedWind from/ knotsBaromVisibWave heightAir tempDewpointWater temp
2014-Apr-19 10:06N 35°03' E 129°08'3 4.4
2014-Apr-19 09:30N 35°05' E 129°05'0 0.0
2014-Apr-19 08:27N 35°05' E 129°05'0 0.0
2014-Apr-19 07:33N 35°05' E 129°05'0 0.0
2014-Apr-19 06:33N 35°05' E 129°05'0 0.0
2014-Apr-19 05:33N 35°05' E 129°05'0 0.0
2014-Apr-19 03:33N 35°05' E 129°05'0 0.0
2014-Apr-19 02:33N 35°05' E 129°05'0 0.0
2014-Apr-19 01:33N 35°05' E 129°05'0 0.0
2014-Apr-19 00:15N 35°05' E 129°05'1 1.0
2014-Apr-18 23:32N 35°05' E 129°06'  
2014-Apr-16 19:13N 31°06' E 122°23'54 1.1
2014-Apr-14 17:29N 31°30' E 123°20'17 8.6
2014-Apr-14 15:34N 31°20' E 123°04'7210.3
2014-Apr-14 08:33N 31°21' E 121°40'9 9.2
2014-Apr-14 07:34N 31°25' E 121°30'0 0.1
2014-Apr-14 06:31N 31°25' E 121°30'3 0.4
2014-Apr-13 22:32N 31°24' E 121°34'  
2014-Apr-11 10:31N 31°16' E 121°55'1313.7
2014-Apr-11 09:34N 31°21' E 121°40'10 9.8
2014-Apr-11 08:33N 31°25' E 121°30'0 0.1
2014-Apr-11 07:30N 31°25' E 121°30'0 0.0
2014-Apr-11 06:30N 31°25' E 121°30'0 0.0
2014-Apr-11 05:30N 31°25' E 121°30'0 0.0
2014-Apr-11 04:30N 31°25' E 121°30'0 0.0
2014-Apr-11 03:30N 31°25' E 121°30'0 0.0
2014-Apr-11 02:30N 31°25' E 121°30'0 0.0
2014-Apr-11 01:29N 31°25' E 121°30'0 0.1
2014-Apr-11 00:30N 31°25' E 121°30'0 0.0
2014-Apr-10 23:24N 31°25' E 121°30'0 0.0
2014-Apr-10 22:33N 31°25' E 121°30'6 5.6
2014-Apr-10 21:34N 31°23' E 121°36'1010.1
2014-Apr-10 20:32N 31°18' E 121°47'1110.6
2014-Apr-10 19:32N 31°15' E 121°59'1312.4
2014-Apr-10 18:31N 31°10' E 122°12'1413.2
2014-Apr-10 17:29N 31°07' E 122°28'1212.8
2014-Apr-10 16:32N 31°07' E 122°42'5613.5
2014-Apr-10 12:25N 31°37' E 123°37'  

Dump ship's entire track history

sailing weather and tide predictions

Mariner Of The Seas — C6FV9 — position and weather